KBGR Airport Information

Runway Information
Runway 15 Length 11440 ft width 200 ft
Elevation 192 ft Threshold 0 ft Heading 134
Runway 33 Length 11440 ft Width 200 ft
Elevation 163 ft Threshold 0 ft Heading 314
Airport Frequencies
Type A/D Name APP/DEP Frequency 118.925 MHZ
Type ASOS Name ASOS Frequency 127.75 MHZ
Type ATIS Name ATIS Frequency 127.75 MHZ
Type CLD Name CLNC DEL Frequency 135.9 MHZ
Type GND Name GND Frequency 121.9 MHZ
Type MISC Name ARNG OPS Frequency 41.2 MHZ
Type OPS Name ANG OPS Frequency 31.1 MHZ
Type RDO Name RDO Frequency 122.2 MHZ
Type TWR Name TWR Frequency 120.7 MHZ
Type UNIC Name UNICOM Frequency 122.95 MHZ
Airport Navaids
Type NDB Name Totte Frequency 227 KHZ
Type VORTAC Name Bangor Frequency 114800 KHZ
Airport Weather Information & NOTAM
ADDS - METARS form results

(0307 UTC 26 September 2018)
Data provider http://aviationweather.gov/metar/data/
 
METAR text: KBGR 260253Z 16009G18KT 1 3/4SM RA BR BKN009 OVC014 14/14 A3025 RMK AO2 DZE0158RAB0158 SLP243 P0021 60023 T01440139 58037 $
Conditions at: KBGR (BANGOR , ME, US) observed 0253 UTC 26 September 2018
Temperature: 14.4°C (58°F)
Dewpoint: 13.9°C (57°F) [RH = 97%]
Pressure (altimeter): 30.25 inches Hg (1024.5 mb)
[Sea-level pressure: 1024.3 mb]
Winds: from the SSE (160 degrees) at 10 MPH (9 knots; 4.6 m/s)
gusting to 21 MPH (18 knots; 9.3 m/s)
Visibility: 1.75 miles (2.82 km)
Ceiling: 900 feet AGL
Clouds: broken clouds at 900 feet AGL
overcast cloud deck at 1400 feet AGL
Weather: RA BR  (moderate rain, mist)
SOME DATA ABOVE MAY BE INACCURATE!!!
"$" is an indication the sensor requires maintenance

METAR text: KBGR 260243Z 15013G20KT 1 3/4SM RA BR BKN009 OVC014 14/14 A3025 RMK AO2 DZE0158RAB0158 P0018 T01440139 $
Conditions at: KBGR (BANGOR , ME, US) observed 0243 UTC 26 September 2018
Temperature: 14.4°C (58°F)
Dewpoint: 13.9°C (57°F) [RH = 97%]
Pressure (altimeter): 30.25 inches Hg (1024.5 mb)
Winds: from the SSE (150 degrees) at 15 MPH (13 knots; 6.7 m/s)
gusting to 23 MPH (20 knots; 10.3 m/s)
Visibility: 1.75 miles (2.82 km)
Ceiling: 900 feet AGL
Clouds: broken clouds at 900 feet AGL
overcast cloud deck at 1400 feet AGL
Weather: RA BR  (moderate rain, mist)
SOME DATA ABOVE MAY BE INACCURATE!!!
"$" is an indication the sensor requires maintenance

METAR text: KBGR 260236Z 14011KT 1 3/4SM RA BR OVC012 14/14 A3025 RMK AO2 DZE0158RAB0158 P0014 T01390139 $
Conditions at: KBGR (BANGOR , ME, US) observed 0236 UTC 26 September 2018
Temperature: 13.9°C (57°F)
Dewpoint: 13.9°C (57°F) [RH = 100%]
Pressure (altimeter): 30.25 inches Hg (1024.5 mb)
Winds: from the SE (140 degrees) at 13 MPH (11 knots; 5.7 m/s)
Visibility: 1.75 miles (2.82 km)
Ceiling: 1200 feet AGL
Clouds: overcast cloud deck at 1200 feet AGL
Weather: RA BR  (moderate rain, mist)
SOME DATA ABOVE MAY BE INACCURATE!!!
"$" is an indication the sensor requires maintenance

METAR text: KBGR 260224Z 15010KT 2 1/2SM RA BR BKN009 OVC013 14/13 A3026 RMK AO2 DZE0158RAB0158 CIG 007V011 P0005 T01440133 $
Conditions at: KBGR (BANGOR , ME, US) observed 0224 UTC 26 September 2018
Temperature: 14.4°C (58°F)
Dewpoint: 13.3°C (56°F) [RH = 93%]
Pressure (altimeter): 30.26 inches Hg (1024.8 mb)
Winds: from the SSE (150 degrees) at 12 MPH (10 knots; 5.1 m/s)
Visibility: 2.50 miles (4.02 km)
Ceiling: 900 feet AGL
Clouds: broken clouds at 900 feet AGL
overcast cloud deck at 1300 feet AGL
Weather: RA BR  (moderate rain, mist)
SOME DATA ABOVE MAY BE INACCURATE!!!
"$" is an indication the sensor requires maintenance

Forecast for: KBGR (BANGOR , ME, US)
Text: KBGR 260231Z 2603/2624 16011KT 3SM -RA BR OVC007 WS020/19045KT
Forecast period: 0300 to 0800 UTC 26 September 2018
Forecast type: FROM: standard forecast or significant change
Winds: from the SSE (160 degrees) at 13 MPH (11 knots; 5.7 m/s)
Visibility: 3 miles (5 km)
Ceiling: 700 feet AGL
Clouds: overcast cloud deck at 700 feet AGL
Wind Shear: at 2000 feet ( 610 m) AGL, from the S (190 degrees) at 52 MPH (45 knots; 23.4 m/s)
Weather: -RA BR  (light rain, mist)
Text: FM260800 17011KT 2SM -RA BR OVC003 WS020/22040KT
Forecast period: 0800 to 1500 UTC 26 September 2018
Forecast type: FROM: standard forecast or significant change
Winds: from the S (170 degrees) at 13 MPH (11 knots; 5.7 m/s)
Visibility: 2.00 miles (3.22 km)
Ceiling: 300 feet AGL
Clouds: overcast cloud deck at 300 feet AGL
Wind Shear: at 2000 feet ( 610 m) AGL, from the SW (220 degrees) at 46 MPH (40 knots; 20.8 m/s)
Weather: -RA BR  (light rain, mist)
Text: FM261500 18014G22KT 5SM BR OVC006
Forecast period: 1500 UTC 26 September 2018 to 0000 UTC 27 September 2018
Forecast type: FROM: standard forecast or significant change
Winds: from the S (180 degrees) at 16 MPH (14 knots; 7.2 m/s)
gusting to 25 MPH (22 knots; 11.3 m/s)
Visibility: 5 miles (8 km)
Ceiling: 600 feet AGL
Clouds: overcast cloud deck at 600 feet AGL
Weather: BR  (mist)